« Back
NWS Peachtree City, Ga » Text Product » MCN Terminal Aerodrome Forecast


Printer-friendly Version
Current Version              Previous Versions:   1  2  3  4  5  6  7  8  9  

Terminal Aerodrome Forecast

760
FTUS42 KFFC 302300
TAFMCN
TAF
KMCN 302320Z 3100/3124 34004KT P6SM SKC
     FM310200 00000KT P6SM SKC
     FM311400 31008KT P6SM FEW120
     FM312100 31010G17KT P6SM BKN120=



USA.gov is the U.S. government's official web portal to all federal, state and local government web resources and services.